M I D A S
Marine Information and Data Acquisition System
Tripno 1758 of the Zeeleeuw from 2009-08-31 08:15:00 to 2009-08-31 12:35:00
Back to CruiseResearch ActivitiesStationsMapUnderway DataData graphs

EquipmentUnitsComment
TimeDGPSUTC
LatitudeDGPSDM.mWGS84
LongitudeDGPSDM.mWGS84
HeadingGyrodeg 
SOGDGPSknotsSpeed over ground
COGDGPSdegCourse over ground
DepthEcho soundermeters200 kHz
Missing or incorrect values are displayed as -999
Navigation data collected by the RV Zeeleeuw from 2009-08-31 08:15:00 to 2009-08-31 12:35:00
Time Latitude Longitude Heading SOG COG Depth
2009-08-31 08:15:20 51°26.538 2°49.318 9.9 9.3 10 -999
2009-08-31 08:15:30 51°26.564 2°49.326 9.9 9.3 10 -999
2009-08-31 08:15:40 51°26.589 2°49.335 9.9 9.3 10 -999
2009-08-31 08:15:50 51°26.613 2°49.344 9.9 9.3 10 -999
2009-08-31 08:16:00 51°26.638 2°49.353 12.6 9 12 -999
2009-08-31 08:16:10 51°26.66 2°49.363 12.6 9 12 -999
2009-08-31 08:16:20 51°26.681 2°49.373 12.6 9 12 -999
2009-08-31 08:16:30 51°26.7 2°49.382 12.6 9 12 -999
2009-08-31 08:16:40 51°26.717 2°49.393 12.6 9 12 -999
2009-08-31 08:16:50 51°26.734 2°49.404 12.6 9 12 -999
2009-08-31 08:17:00 51°26.751 2°49.413 20.1 6.29 19 -999
2009-08-31 08:17:10 51°26.766 2°49.422 20.1 6.29 19 -999
2009-08-31 08:17:20 51°26.781 2°49.427 20.1 6.29 19 -999
2009-08-31 08:17:30 51°26.793 2°49.432 20.1 6.29 19 -999
2009-08-31 08:17:40 51°26.804 2°49.435 20.1 6.29 19 -999
2009-08-31 08:17:50 51°26.812 2°49.438 20.1 6.29 19 -999
2009-08-31 08:18:00 51°26.816 2°49.44 357 1.8 16 -999
2009-08-31 08:18:10 51°26.821 2°49.441 357 1.8 16 -999
2009-08-31 08:18:20 51°26.825 2°49.443 357 1.8 16 -999
2009-08-31 08:18:30 51°26.829 2°49.445 357 1.8 16 -999
2009-08-31 08:18:40 51°26.833 2°49.446 357 1.8 16 -999
2009-08-31 08:18:50 51°26.836 2°49.448 357 1.8 16 -999
2009-08-31 08:19:00 51°26.84 2°49.449 331.6 1.19 16 -999
2009-08-31 08:19:10 51°26.843 2°49.45 331.6 1.19 16 -999
2009-08-31 08:19:20 51°26.846 2°49.451 331.6 1.19 16 -999
2009-08-31 08:19:30 51°26.849 2°49.453 331.6 1.19 16 -999
2009-08-31 08:19:40 51°26.852 2°49.454 331.6 1.19 16 -999
2009-08-31 08:19:50 51°26.854 2°49.455 331.6 1.19 16 -999
2009-08-31 08:20:00 51°26.857 2°49.457 318.1 1.19 20 -999
2009-08-31 08:20:10 51°26.86 2°49.458 318.1 1.19 20 -999
2009-08-31 08:20:20 51°26.863 2°49.459 318.1 1.19 20 -999
2009-08-31 08:20:30 51°26.865 2°49.461 318.1 1.19 20 -999
2009-08-31 08:20:40 51°26.868 2°49.463 318.1 1.19 20 -999
2009-08-31 08:20:50 51°26.87 2°49.464 318.1 1.19 20 -999
2009-08-31 08:21:00 51°26.872 2°49.466 312.6 0.9 29 -999
2009-08-31 08:21:10 51°26.874 2°49.469 312.6 0.9 29 -999
2009-08-31 08:21:20 51°26.876 2°49.471 312.6 0.9 29 -999
2009-08-31 08:21:30 51°26.879 2°49.473 312.6 0.9 29 -999
2009-08-31 08:21:40 51°26.88 2°49.475 312.6 0.9 29 -999
2009-08-31 08:21:50 51°26.882 2°49.478 312.6 0.9 29 -999
2009-08-31 08:22:00 51°26.884 2°49.48 308 0.9 35 -999
2009-08-31 08:22:10 51°26.886 2°49.482 308 0.9 35 -999
2009-08-31 08:22:20 51°26.888 2°49.485 308 0.9 35 -999
2009-08-31 08:22:30 51°26.89 2°49.487 308 0.9 35 -999
2009-08-31 08:22:40 51°26.892 2°49.489 308 0.9 35 -999
2009-08-31 08:22:50 51°26.894 2°49.492 308 0.9 35 -999
2009-08-31 08:23:00 51°26.895 2°49.494 303.3 0.9 37 -999
2009-08-31 08:23:10 51°26.897 2°49.496 303.3 0.9 37 -999
2009-08-31 08:23:20 51°26.899 2°49.499 303.3 0.9 37 -999
2009-08-31 08:23:30 51°26.901 2°49.502 303.3 0.9 37 -999
2009-08-31 08:23:40 51°26.903 2°49.505 303.3 0.9 37 -999
2009-08-31 08:23:50 51°26.905 2°49.508 303.3 0.9 37 -999
2009-08-31 08:24:00 51°26.907 2°49.511 301.6 1 46 -999
2009-08-31 08:24:10 51°26.909 2°49.514 301.6 1 46 -999
2009-08-31 08:24:20 51°26.911 2°49.517 301.6 1 46 -999
2009-08-31 08:24:30 51°26.913 2°49.521 301.6 1 46 -999
2009-08-31 08:24:40 51°26.915 2°49.524 301.6 1 46 -999
2009-08-31 08:24:50 51°26.917 2°49.527 301.6 1 46 -999
2009-08-31 08:25:00 51°26.919 2°49.53 304 1 48 -999
2009-08-31 08:25:10 51°26.921 2°49.534 304 1 48 -999
2009-08-31 08:25:20 51°26.922 2°49.537 304 1 48 -999
2009-08-31 08:25:30 51°26.924 2°49.54 304 1 48 -999
2009-08-31 08:25:40 51°26.926 2°49.544 304 1 48 -999
2009-08-31 08:25:50 51°26.928 2°49.548 304 1 48 -999
2009-08-31 08:26:00 51°26.93 2°49.551 305.1 1.1 46 -999
2009-08-31 08:26:10 51°26.932 2°49.555 305.1 1.1 46 -999
2009-08-31 08:26:20 51°26.934 2°49.559 305.1 1.1 46 -999
2009-08-31 08:26:30 51°26.935 2°49.563 305.1 1.1 46 -999
2009-08-31 08:26:40 51°26.937 2°49.566 305.1 1.1 46 -999
2009-08-31 08:26:50 51°26.939 2°49.571 305.1 1.1 46 -999
2009-08-31 08:27:00 51°26.94 2°49.575 312 1 57 -999
2009-08-31 08:27:10 51°26.942 2°49.579 312 1 57 -999
2009-08-31 08:27:20 51°26.944 2°49.583 312 1 57 -999
2009-08-31 08:27:30 51°26.946 2°49.587 312 1 57 -999
2009-08-31 08:27:40 51°26.947 2°49.591 312 1 57 -999
2009-08-31 08:27:50 51°26.949 2°49.596 312 1 57 -999
2009-08-31 08:28:00 51°26.951 2°49.6 320.1 1.3 59 -999
2009-08-31 08:28:10 51°26.953 2°49.604 320.1 1.3 59 -999
2009-08-31 08:28:20 51°26.955 2°49.608 320.1 1.3 59 -999
2009-08-31 08:28:30 51°26.957 2°49.611 320.1 1.3 59 -999
2009-08-31 08:28:40 51°26.96 2°49.613 320.1 1.3 59 -999
2009-08-31 08:28:50 51°26.964 2°49.612 320.1 1.3 59 -999
2009-08-31 08:29:00 51°26.969 2°49.608 312.8 2.1 326 -999
2009-08-31 08:29:10 51°26.973 2°49.601 312.8 2.1 326 -999
2009-08-31 08:29:20 51°26.976 2°49.592 312.8 2.1 326 -999
2009-08-31 08:29:30 51°26.978 2°49.581 312.8 2.1 326 -999
2009-08-31 08:29:40 51°26.978 2°49.571 312.8 2.1 326 -999
2009-08-31 08:29:50 51°26.976 2°49.56 312.8 2.1 326 -999
2009-08-31 08:30:00 51°26.971 2°49.55 239.5 2.6 229 -999
2009-08-31 08:30:10 51°26.965 2°49.543 239.5 2.6 229 -999
2009-08-31 08:30:20 51°26.957 2°49.539 239.5 2.6 229 -999
2009-08-31 08:30:30 51°26.949 2°49.538 239.5 2.6 229 -999
2009-08-31 08:30:40 51°26.939 2°49.54 239.5 2.6 229 -999
2009-08-31 08:30:50 51°26.924 2°49.542 239.5 2.6 229 -999
2009-08-31 08:31:00 51°26.903 2°49.543 181.6 7.7 179 -999
2009-08-31 08:31:10 51°26.88 2°49.544 181.6 7.7 179 -999
2009-08-31 08:31:20 51°26.854 2°49.545 181.6 7.7 179 -999
2009-08-31 08:31:30 51°26.826 2°49.547 181.6 7.7 179 -999
2009-08-31 08:31:40 51°26.798 2°49.548 181.6 7.7 179 -999
2009-08-31 08:31:50 51°26.769 2°49.549 181.6 7.7 179 -999
2009-08-31 08:32:00 51°26.739 2°49.551 181.5 10.59 177 -999
2009-08-31 08:32:10 51°26.71 2°49.554 181.5 10.59 177 -999
2009-08-31 08:32:20 51°26.68 2°49.556 181.5 10.59 177 -999
2009-08-31 08:32:30 51°26.65 2°49.56 181.5 10.59 177 -999
2009-08-31 08:32:40 51°26.62 2°49.564 181.5 10.59 177 -999
2009-08-31 08:32:50 51°26.591 2°49.568 181.5 10.59 177 -999
2009-08-31 08:33:00 51°26.561 2°49.573 177.6 10.69 175 -999
2009-08-31 08:33:10 51°26.531 2°49.579 177.6 10.69 175 -999
2009-08-31 08:33:20 51°26.502 2°49.585 177.6 10.69 175 -999
2009-08-31 08:33:30 51°26.472 2°49.592 177.6 10.69 175 -999
2009-08-31 08:33:40 51°26.442 2°49.599 177.6 10.69 175 -999
2009-08-31 08:33:50 51°26.412 2°49.605 177.6 10.69 175 -999
2009-08-31 08:34:00 51°26.382 2°49.612 175.5 11 170 -999
2009-08-31 08:34:10 51°26.353 2°49.62 175.5 11 170 -999
2009-08-31 08:34:20 51°26.323 2°49.628 175.5 11 170 -999
2009-08-31 08:34:30 51°26.293 2°49.637 175.5 11 170 -999
2009-08-31 08:34:40 51°26.263 2°49.645 175.5 11 170 -999
2009-08-31 08:34:50 51°26.234 2°49.653 175.5 11 170 -999
2009-08-31 08:35:00 51°26.204 2°49.662 173.5 11 170 -999
2009-08-31 08:35:10 51°26.175 2°49.672 173.5 11 170 -999
2009-08-31 08:35:20 51°26.146 2°49.682 173.5 11 170 -999
2009-08-31 08:35:30 51°26.117 2°49.692 173.5 11 170 -999
2009-08-31 08:35:40 51°26.088 2°49.702 173.5 11 170 -999
2009-08-31 08:35:50 51°26.058 2°49.712 173.5 11 170 -999
2009-08-31 08:36:00 51°26.029 2°49.722 172.5 10.9 168 -999
2009-08-31 08:36:10 51°26 2°49.732 172.5 10.9 168 -999
2009-08-31 08:36:20 51°25.971 2°49.743 172.5 10.9 168 -999
2009-08-31 08:36:30 51°25.942 2°49.753 172.5 10.9 168 -999
2009-08-31 08:36:40 51°25.912 2°49.762 172.5 10.9 168 -999
2009-08-31 08:36:50 51°25.883 2°49.772 172.5 10.9 168 -999
2009-08-31 08:37:00 51°25.854 2°49.782 172.9 10.69 167 -999
2009-08-31 08:37:10 51°25.824 2°49.792 172.9 10.69 167 -999
2009-08-31 08:37:20 51°25.795 2°49.802 172.9 10.69 167 -999
2009-08-31 08:37:30 51°25.766 2°49.812 172.9 10.69 167 -999
2009-08-31 08:37:40 51°25.737 2°49.821 172.9 10.69 167 -999
2009-08-31 08:37:50 51°25.707 2°49.83 172.9 10.69 167 -999
2009-08-31 08:38:00 51°25.678 2°49.84 173.3 10.69 169 -999
2009-08-31 08:38:10 51°25.648 2°49.849 173.3 10.69 169 -999
2009-08-31 08:38:20 51°25.619 2°49.858 173.3 10.69 169 -999
2009-08-31 08:38:30 51°25.59 2°49.867 173.3 10.69 169 -999
2009-08-31 08:38:40 51°25.561 2°49.877 173.3 10.69 169 -999
2009-08-31 08:38:50 51°25.532 2°49.888 173.3 10.69 169 -999
2009-08-31 08:39:00 51°25.502 2°49.898 172.5 10.8 167 -999
2009-08-31 08:39:10 51°25.473 2°49.908 172.5 10.8 167 -999
2009-08-31 08:39:20 51°25.444 2°49.917 172.5 10.8 167 -999
2009-08-31 08:39:30 51°25.415 2°49.927 172.5 10.8 167 -999
2009-08-31 08:39:40 51°25.386 2°49.936 172.5 10.8 167 -999
2009-08-31 08:39:50 51°25.356 2°49.945 172.5 10.8 167 -999
2009-08-31 08:40:00 51°25.327 2°49.955 173.3 10.8 168 -999
2009-08-31 08:40:10 51°25.298 2°49.965 173.3 10.8 168 -999
2009-08-31 08:40:20 51°25.269 2°49.975 173.3 10.8 168 -999
2009-08-31 08:40:30 51°25.24 2°49.985 173.3 10.8 168 -999
2009-08-31 08:40:40 51°25.211 2°49.995 173.3 10.8 168 -999
2009-08-31 08:40:50 51°25.181 2°50.005 173.3 10.8 168 -999
2009-08-31 08:41:00 51°25.152 2°50.015 172.6 10.9 168 -999
2009-08-31 08:41:10 51°25.123 2°50.024 172.6 10.9 168 -999
2009-08-31 08:41:20 51°25.093 2°50.034 172.6 10.9 168 -999
2009-08-31 08:41:30 51°25.064 2°50.043 172.6 10.9 168 -999
2009-08-31 08:41:40 51°25.035 2°50.052 172.6 10.9 168 -999
2009-08-31 08:41:50 51°25.005 2°50.063 172.6 10.9 168 -999
2009-08-31 08:42:00 51°24.976 2°50.073 172.4 10.9 168 -999
2009-08-31 08:42:10 51°24.946 2°50.083 172.4 10.9 168 -999
2009-08-31 08:42:20 51°24.917 2°50.094 172.4 10.9 168 -999
2009-08-31 08:42:30 51°24.887 2°50.103 172.4 10.9 168 -999
2009-08-31 08:42:40 51°24.858 2°50.112 172.4 10.9 168 -999
2009-08-31 08:42:50 51°24.829 2°50.123 172.4 10.9 168 -999
2009-08-31 08:43:00 51°24.799 2°50.133 173 10.8 168 -999
2009-08-31 08:43:10 51°24.77 2°50.144 173 10.8 168 -999
2009-08-31 08:43:20 51°24.741 2°50.154 173 10.8 168 -999
2009-08-31 08:43:30 51°24.711 2°50.163 173 10.8 168 -999
2009-08-31 08:43:40 51°24.682 2°50.173 173 10.8 168 -999
2009-08-31 08:43:50 51°24.653 2°50.183 173 10.8 168 -999
2009-08-31 08:44:00 51°24.624 2°50.193 173.5 10.8 168 -999
2009-08-31 08:44:10 51°24.594 2°50.203 173.5 10.8 168 -999
2009-08-31 08:44:20 51°24.565 2°50.213 173.5 10.8 168 -999
2009-08-31 08:44:30 51°24.535 2°50.223 173.5 10.8 168 -999
2009-08-31 08:44:40 51°24.506 2°50.233 173.5 10.8 168 -999
2009-08-31 08:44:50 51°24.476 2°50.243 173.5 10.8 168 -999
2009-08-31 08:45:00 51°24.447 2°50.253 173.3 10.8 167 -999
2009-08-31 08:45:10 51°24.417 2°50.263 173.3 10.8 167 -999
2009-08-31 08:45:20 51°24.388 2°50.272 173.3 10.8 167 -999
2009-08-31 08:45:30 51°24.358 2°50.283 173.3 10.8 167 -999
2009-08-31 08:45:40 51°24.329 2°50.292 173.3 10.8 167 -999
2009-08-31 08:45:50 51°24.3 2°50.301 173.3 10.8 167 -999
2009-08-31 08:46:00 51°24.27 2°50.311 173.5 10.9 168 -999
2009-08-31 08:46:10 51°24.24 2°50.319 173.5 10.9 168 -999
2009-08-31 08:46:20 51°24.211 2°50.329 173.5 10.9 168 -999
2009-08-31 08:46:30 51°24.182 2°50.337 173.5 10.9 168 -999
2009-08-31 08:46:40 51°24.152 2°50.346 173.5 10.9 168 -999
2009-08-31 08:46:50 51°24.123 2°50.356 173.5 10.9 168 -999
2009-08-31 08:47:00 51°24.094 2°50.365 172.9 10.69 168 -999
2009-08-31 08:47:10 51°24.065 2°50.375 172.9 10.69 168 -999
2009-08-31 08:47:20 51°24.035 2°50.385 172.9 10.69 168 -999
2009-08-31 08:47:30 51°24.006 2°50.394 172.9 10.69 168 -999
2009-08-31 08:47:40 51°23.977 2°50.403 172.9 10.69 168 -999
2009-08-31 08:47:50 51°23.947 2°50.413 172.9 10.69 168 -999
2009-08-31 08:48:00 51°23.918 2°50.423 173.4 10.9 168 -999
2009-08-31 08:48:10 51°23.888 2°50.432 173.4 10.9 168 -999
2009-08-31 08:48:20 51°23.859 2°50.441 173.4 10.9 168 -999
2009-08-31 08:48:30 51°23.829 2°50.45 173.4 10.9 168 -999
2009-08-31 08:48:40 51°23.8 2°50.459 173.4 10.9 168 -999
2009-08-31 08:48:50 51°23.771 2°50.468 173.4 10.9 168 -999
2009-08-31 08:49:00 51°23.741 2°50.478 173.9 10.9 167 -999
2009-08-31 08:49:10 51°23.712 2°50.487 173.9 10.9 167 -999
2009-08-31 08:49:20 51°23.683 2°50.496 173.9 10.9 167 -999
2009-08-31 08:49:30 51°23.653 2°50.506 173.9 10.9 167 -999
2009-08-31 08:49:40 51°23.624 2°50.515 173.9 10.9 167 -999
2009-08-31 08:49:50 51°23.594 2°50.525 173.9 10.9 167 -999
2009-08-31 08:50:00 51°23.565 2°50.534 173.5 10.8 169 -999
2009-08-31 08:50:10 51°23.536 2°50.543 173.5 10.8 169 -999
2009-08-31 08:50:20 51°23.506 2°50.552 173.5 10.8 169 -999
2009-08-31 08:50:30 51°23.477 2°50.561 173.5 10.8 169 -999
2009-08-31 08:50:40 51°23.447 2°50.57 173.5 10.8 169 -999
2009-08-31 08:50:50 51°23.418 2°50.579 173.5 10.8 169 -999
2009-08-31 08:51:00 51°23.388 2°50.589 174.3 10.8 168 -999
2009-08-31 08:51:10 51°23.359 2°50.597 174.3 10.8 168 -999
2009-08-31 08:51:20 51°23.329 2°50.607 174.3 10.8 168 -999
2009-08-31 08:51:30 51°23.3 2°50.615 174.3 10.8 168 -999
2009-08-31 08:51:40 51°23.27 2°50.624 174.3 10.8 168 -999
2009-08-31 08:51:50 51°23.241 2°50.633 174.3 10.8 168 -999
2009-08-31 08:52:00 51°23.211 2°50.643 173.4 10.9 168 -999
2009-08-31 08:52:10 51°23.182 2°50.653 173.4 10.9 168 -999
2009-08-31 08:52:20 51°23.152 2°50.662 173.4 10.9 168 -999
2009-08-31 08:52:30 51°23.123 2°50.671 173.4 10.9 168 -999
2009-08-31 08:52:40 51°23.094 2°50.679 173.4 10.9 168 -999
2009-08-31 08:52:50 51°23.064 2°50.688 173.4 10.9 168 -999
2009-08-31 08:53:00 51°23.034 2°50.697 173.5 10.9 170 -999
2009-08-31 08:53:10 51°23.005 2°50.706 173.5 10.9 170 -999
2009-08-31 08:53:20 51°22.975 2°50.715 173.5 10.9 170 -999
2009-08-31 08:53:30 51°22.946 2°50.725 173.5 10.9 170 -999
2009-08-31 08:53:40 51°22.916 2°50.735 173.5 10.9 170 -999
2009-08-31 08:53:50 51°22.887 2°50.744 173.5 10.9 170 -999
2009-08-31 08:54:00 51°22.857 2°50.754 173.4 11 168 -999
2009-08-31 08:54:10 51°22.827 2°50.762 173.4 11 168 -999
2009-08-31 08:54:20 51°22.798 2°50.772 173.4 11 168 -999
2009-08-31 08:54:30 51°22.768 2°50.782 173.4 11 168 -999
2009-08-31 08:54:40 51°22.739 2°50.792 173.4 11 168 -999
2009-08-31 08:54:50 51°22.709 2°50.802 173.4 11 168 -999
2009-08-31 08:55:00 51°22.68 2°50.812 172.5 10.8 168 -999
2009-08-31 08:55:10 51°22.65 2°50.823 172.5 10.8 168 -999
2009-08-31 08:55:20 51°22.62 2°50.833 172.5 10.8 168 -999
2009-08-31 08:55:30 51°22.591 2°50.843 172.5 10.8 168 -999
2009-08-31 08:55:40 51°22.561 2°50.854 172.5 10.8 168 -999
2009-08-31 08:55:50 51°22.532 2°50.865 172.5 10.8 168 -999
2009-08-31 08:56:00 51°22.503 2°50.875 172 10.8 169 -999
2009-08-31 08:56:10 51°22.473 2°50.886 172 10.8 169 -999
2009-08-31 08:56:20 51°22.444 2°50.897 172 10.8 169 -999
2009-08-31 08:56:30 51°22.415 2°50.907 172 10.8 169 -999
2009-08-31 08:56:40 51°22.386 2°50.917 172 10.8 169 -999
2009-08-31 08:56:50 51°22.356 2°50.928 172 10.8 169 -999
2009-08-31 08:57:00 51°22.327 2°50.938 172.1 10.8 167 -999
2009-08-31 08:57:10 51°22.298 2°50.948 172.1 10.8 167 -999
2009-08-31 08:57:20 51°22.269 2°50.958 172.1 10.8 167 -999
2009-08-31 08:57:30 51°22.239 2°50.968 172.1 10.8 167 -999
2009-08-31 08:57:40 51°22.21 2°50.977 172.1 10.8 167 -999
2009-08-31 08:57:50 51°22.181 2°50.987 172.1 10.8 167 -999
2009-08-31 08:58:00 51°22.152 2°50.996 172.9 10.69 169 -999
2009-08-31 08:58:10 51°22.122 2°51.006 172.9 10.69 169 -999
2009-08-31 08:58:20 51°22.093 2°51.015 172.9 10.69 169 -999
2009-08-31 08:58:30 51°22.064 2°51.025 172.9 10.69 169 -999
2009-08-31 08:58:40 51°22.035 2°51.034 172.9 10.69 169 -999
2009-08-31 08:58:50 51°22.005 2°51.044 172.9 10.69 169 -999
2009-08-31 08:59:00 51°21.976 2°51.054 172.8 10.69 168 -999
2009-08-31 08:59:10 51°21.947 2°51.063 172.8 10.69 168 -999
2009-08-31 08:59:20 51°21.918 2°51.072 172.8 10.69 168 -999
2009-08-31 08:59:30 51°21.888 2°51.082 172.8 10.69 168 -999
2009-08-31 08:59:40 51°21.859 2°51.09 172.8 10.69 168 -999
2009-08-31 08:59:50 51°21.829 2°51.099 172.8 10.69 168 -999
2009-08-31 09:00:00 51°21.8 2°51.108 174 10.8 169 -999
2009-08-31 09:00:10 51°21.771 2°51.117 174 10.8 169 -999
2009-08-31 09:00:20 51°21.741 2°51.125 174 10.8 169 -999
2009-08-31 09:00:30 51°21.712 2°51.134 174 10.8 169 -999
2009-08-31 09:00:40 51°21.683 2°51.143 174 10.8 169 -999
2009-08-31 09:00:50 51°21.653 2°51.15 174 10.8 169 -999
2009-08-31 09:01:00 51°21.624 2°51.159 174.3 10.69 169 -999
2009-08-31 09:01:10 51°21.595 2°51.169 174.3 10.69 169 -999
2009-08-31 09:01:20 51°21.565 2°51.178 174.3 10.69 169 -999
2009-08-31 09:01:30 51°21.536 2°51.188 174.3 10.69 169 -999
2009-08-31 09:01:40 51°21.506 2°51.197 174.3 10.69 169 -999
2009-08-31 09:01:50 51°21.477 2°51.206 174.3 10.69 169 -999
2009-08-31 09:02:00 51°21.448 2°51.215 173.4 10.8 169 -999
2009-08-31 09:02:10 51°21.418 2°51.224 173.4 10.8 169 -999
2009-08-31 09:02:20 51°21.388 2°51.234 173.4 10.8 169 -999
2009-08-31 09:02:30 51°21.359 2°51.243 173.4 10.8 169 -999
2009-08-31 09:02:40 51°21.33 2°51.253 173.4 10.8 169 -999
2009-08-31 09:02:50 51°21.3 2°51.263 173.4 10.8 169 -999
2009-08-31 09:03:00 51°21.271 2°51.271 173.9 10.8 169 -999
2009-08-31 09:03:10 51°21.241 2°51.279 173.9 10.8 169 -999
2009-08-31 09:03:20 51°21.211 2°51.288 173.9 10.8 169 -999
2009-08-31 09:03:30 51°21.182 2°51.295 173.9 10.8 169 -999
2009-08-31 09:03:40 51°21.152 2°51.302 173.9 10.8 169 -999
2009-08-31 09:03:50 51°21.122 2°51.309 173.9 10.8 169 -999
2009-08-31 09:04:00 51°21.093 2°51.316 176.5 10.69 172 -999
2009-08-31 09:04:10 51°21.063 2°51.324 176.5 10.69 172 -999
2009-08-31 09:04:20 51°21.033 2°51.331 176.5 10.69 172 -999
2009-08-31 09:04:30 51°21.004 2°51.339 176.5 10.69 172 -999
2009-08-31 09:04:40 51°20.974 2°51.346 176.5 10.69 172 -999
2009-08-31 09:04:50 51°20.945 2°51.352 176.5 10.69 172 -999
2009-08-31 09:05:00 51°20.915 2°51.36 175.6 10.69 173 -999
2009-08-31 09:05:10 51°20.886 2°51.366 175.6 10.69 173 -999
2009-08-31 09:05:20 51°20.856 2°51.374 175.6 10.69 173 -999
2009-08-31 09:05:30 51°20.827 2°51.381 175.6 10.69 173 -999
2009-08-31 09:05:40 51°20.797 2°51.389 175.6 10.69 173 -999
2009-08-31 09:05:50 51°20.767 2°51.396 175.6 10.69 173 -999
2009-08-31 09:06:00 51°20.738 2°51.405 174.8 10.8 169 -999
2009-08-31 09:06:10 51°20.708 2°51.411 174.8 10.8 169 -999
2009-08-31 09:06:20 51°20.679 2°51.42 174.8 10.8 169 -999
2009-08-31 09:06:30 51°20.649 2°51.428 174.8 10.8 169 -999
2009-08-31 09:06:40 51°20.619 2°51.435 174.8 10.8 169 -999
2009-08-31 09:06:50 51°20.589 2°51.443 174.8 10.8 169 -999
2009-08-31 09:07:00 51°20.56 2°51.45 175.5 10.8 171 -999
2009-08-31 09:07:10 51°20.53 2°51.458 175.5 10.8 171 -999
2009-08-31 09:07:20 51°20.5 2°51.465 175.5 10.8 171 -999
2009-08-31 09:07:30 51°20.471 2°51.473 175.5 10.8 171 -999
2009-08-31 09:07:40 51°20.441 2°51.481 175.5 10.8 171 -999
2009-08-31 09:07:50 51°20.412 2°51.489 175.5 10.8 171 -999
2009-08-31 09:08:00 51°20.382 2°51.497 174 10.9 171 -999
2009-08-31 09:08:10 51°20.352 2°51.505 174 10.9 171 -999
2009-08-31 09:08:20 51°20.323 2°51.512 174 10.9 171 -999
2009-08-31 09:08:30 51°20.293 2°51.52 174 10.9 171 -999
2009-08-31 09:08:40 51°20.263 2°51.527 174 10.9 171 -999
2009-08-31 09:08:50 51°20.233 2°51.534 174 10.9 171 -999
2009-08-31 09:09:00 51°20.204 2°51.541 176.1 10.8 172 -999
2009-08-31 09:09:10 51°20.174 2°51.549 176.1 10.8 172 -999
2009-08-31 09:09:20 51°20.144 2°51.557 176.1 10.8 172 -999
2009-08-31 09:09:30 51°20.114 2°51.565 176.1 10.8 172 -999
2009-08-31 09:09:40 51°20.085 2°51.573 176.1 10.8 172 -999
2009-08-31 09:09:50 51°20.055 2°51.58 176.1 10.8 172 -999
2009-08-31 09:10:00 51°20.026 2°51.588 175 10.8 170 -999
2009-08-31 09:10:10 51°19.996 2°51.595 175 10.8 170 -999
2009-08-31 09:10:20 51°19.966 2°51.603 175 10.8 170 -999
2009-08-31 09:10:30 51°19.937 2°51.61 175 10.8 170 -999
2009-08-31 09:10:40 51°19.907 2°51.618 175 10.8 170 -999
2009-08-31 09:10:50 51°19.877 2°51.624 175 10.8 170 -999
2009-08-31 09:11:00 51°19.848 2°51.631 176.4 10.69 172 -999
2009-08-31 09:11:10 51°19.818 2°51.638 176.4 10.69 172 -999
2009-08-31 09:11:20 51°19.788 2°51.645 176.4 10.69 172 -999
2009-08-31 09:11:30 51°19.758 2°51.652 176.4 10.69 172 -999
2009-08-31 09:11:40 51°19.728 2°51.659 176.4 10.69 172 -999
2009-08-31 09:11:50 51°19.699 2°51.666 176.4 10.69 172 -999
2009-08-31 09:12:00 51°19.669 2°51.673 176.8 10.8 172 -999
2009-08-31 09:12:10 51°19.64 2°51.679 176.8 10.8 172 -999
2009-08-31 09:12:20 51°19.611 2°51.687 176.8 10.8 172 -999
2009-08-31 09:12:30 51°19.581 2°51.695 176.8 10.8 172 -999
2009-08-31 09:12:40 51°19.552 2°51.702 176.8 10.8 172 -999
2009-08-31 09:12:50 51°19.523 2°51.711 176.8 10.8 172 -999
2009-08-31 09:13:00 51°19.494 2°51.719 174.1 10.69 170 -999
2009-08-31 09:13:10 51°19.464 2°51.727 174.1 10.69 170 -999
2009-08-31 09:13:20 51°19.435 2°51.735 174.1 10.69 170 -999
2009-08-31 09:13:30 51°19.406 2°51.744 174.1 10.69 170 -999
2009-08-31 09:13:40 51°19.377 2°51.752 174.1 10.69 170 -999
2009-08-31 09:13:50 51°19.348 2°51.759 174.1 10.69 170 -999
2009-08-31 09:14:00 51°19.319 2°51.767 175.3 10.59 170 -999
2009-08-31 09:14:10 51°19.29 2°51.775 175.3 10.59 170 -999
2009-08-31 09:14:20 51°19.261 2°51.783 175.3 10.59 170 -999
2009-08-31 09:14:30 51°19.232 2°51.791 175.3 10.59 170 -999
2009-08-31 09:14:40 51°19.203 2°51.799 175.3 10.59 170 -999
2009-08-31 09:14:50 51°19.174 2°51.807 175.3 10.59 170 -999
2009-08-31 09:15:00 51°19.145 2°51.815 174.9 10.59 171 -999
2009-08-31 09:15:10 51°19.116 2°51.823 174.9 10.59 171 -999
2009-08-31 09:15:20 51°19.087 2°51.831 174.9 10.59 171 -999
2009-08-31 09:15:30 51°19.058 2°51.838 174.9 10.59 171 -999
2009-08-31 09:15:40 51°19.029 2°51.845 174.9 10.59 171 -999
2009-08-31 09:15:50 51°18.999 2°51.852 174.9 10.59 171 -999
2009-08-31 09:16:00 51°18.97 2°51.86 175.9 10.69 171 -999
2009-08-31 09:16:10 51°18.941 2°51.867 175.9 10.69 171 -999
2009-08-31 09:16:20 51°18.912 2°51.876 175.9 10.69 171 -999
2009-08-31 09:16:30 51°18.883 2°51.883 175.9 10.69 171 -999
2009-08-31 09:16:40 51°18.854 2°51.891 175.9 10.69 171 -999
2009-08-31 09:16:50 51°18.825 2°51.897 175.9 10.69 171 -999
2009-08-31 09:17:00 51°18.795 2°51.904 175.9 10.59 172 -999
2009-08-31 09:17:10 51°18.766 2°51.912 175.9 10.59 172 -999
2009-08-31 09:17:20 51°18.737 2°51.919 175.9 10.59 172 -999
2009-08-31 09:17:30 51°18.708 2°51.925 175.9 10.59 172 -999
2009-08-31 09:17:40 51°18.679 2°51.93 175.9 10.59 172 -999
2009-08-31 09:17:50 51°18.65 2°51.935 175.9 10.59 172 -999
2009-08-31 09:18:00 51°18.621 2°51.941 177.8 10.59 174 -999
2009-08-31 09:18:10 51°18.592 2°51.946 177.8 10.59 174 -999
2009-08-31 09:18:20 51°18.562 2°51.95 177.8 10.59 174 -999
2009-08-31 09:18:30 51°18.534 2°51.955 177.8 10.59 174 -999
2009-08-31 09:18:40 51°18.504 2°51.959 177.8 10.59 174 -999
2009-08-31 09:18:50 51°18.475 2°51.963 177.8 10.59 174 -999
2009-08-31 09:19:00 51°18.446 2°51.968 178.9 10.5 174 -999
2009-08-31 09:19:10 51°18.417 2°51.972 178.9 10.5 174 -999
2009-08-31 09:19:20 51°18.387 2°51.977 178.9 10.5 174 -999
2009-08-31 09:19:30 51°18.358 2°51.981 178.9 10.5 174 -999
2009-08-31 09:19:40 51°18.329 2°51.984 178.9 10.5 174 -999
2009-08-31 09:19:50 51°18.3 2°51.989 178.9 10.5 174 -999
2009-08-31 09:20:00 51°18.271 2°51.993 177.5 10.59 175 -999
2009-08-31 09:20:10 51°18.242 2°51.998 177.5 10.59 175 -999
2009-08-31 09:20:20 51°18.212 2°52.003 177.5 10.59 175 -999
2009-08-31 09:20:30 51°18.183 2°52.007 177.5 10.59 175 -999
2009-08-31 09:20:40 51°18.153 2°52.012 177.5 10.59 175 -999
2009-08-31 09:20:50 51°18.124 2°52.016 177.5 10.59 175 -999
2009-08-31 09:21:00 51°18.095 2°52.021 177.6 10.59 175 -999
2009-08-31 09:21:10 51°18.066 2°52.025 177.6 10.59 175 -999
2009-08-31 09:21:20 51°18.036 2°52.029 177.6 10.59 175 -999
2009-08-31 09:21:30 51°18.007 2°52.033 177.6 10.59 175 -999
2009-08-31 09:21:40 51°17.977 2°52.037 177.6 10.59 175 -999
2009-08-31 09:21:50 51°17.948 2°52.041 177.6 10.59 175 -999
2009-08-31 09:22:00 51°17.919 2°52.045 178.5 10.5 176 -999
2009-08-31 09:22:10 51°17.889 2°52.049 178.5 10.5 176 -999
2009-08-31 09:22:20 51°17.86 2°52.052 178.5 10.5 176 -999
2009-08-31 09:22:30 51°17.831 2°52.056 178.5 10.5 176 -999
2009-08-31 09:22:40 51°17.802 2°52.061 178.5 10.5 176 -999
2009-08-31 09:22:50 51°17.772 2°52.065 178.5 10.5 176 -999
2009-08-31 09:23:00 51°17.743 2°52.069 178.5 10.59 174 -999
2009-08-31 09:23:10 51°17.714 2°52.072 178.5 10.59 174 -999
2009-08-31 09:23:20 51°17.685 2°52.075 178.5 10.59 174 -999
2009-08-31 09:23:30 51°17.655 2°52.078 178.5 10.59 174 -999
2009-08-31 09:23:40 51°17.626 2°52.083 178.5 10.59 174 -999
2009-08-31 09:23:50 51°17.597 2°52.088 178.5 10.59 174 -999
2009-08-31 09:24:00 51°17.568 2°52.095 175.6 10.59 171 -999
2009-08-31 09:24:10 51°17.539 2°52.103 175.6 10.59 171 -999
2009-08-31 09:24:20 51°17.51 2°52.111 175.6 10.59 171 -999
2009-08-31 09:24:30 51°17.481 2°52.122 175.6 10.59 171 -999
2009-08-31 09:24:40 51°17.453 2°52.134 175.6 10.59 171 -999
2009-08-31 09:24:50 51°17.424 2°52.147 175.6 10.59 171 -999
2009-08-31 09:25:00 51°17.396 2°52.161 166.8 10.69 162 -999
2009-08-31 09:25:10 51°17.368 2°52.177 166.8 10.69 162 -999
2009-08-31 09:25:20 51°17.34 2°52.192 166.8 10.69 162 -999
2009-08-31 09:25:30 51°17.312 2°52.21 166.8 10.69 162 -999
2009-08-31 09:25:40 51°17.284 2°52.227 166.8 10.69 162 -999
2009-08-31 09:25:50 51°17.256 2°52.245 166.8 10.69 162 -999
2009-08-31 09:26:00 51°17.229 2°52.263 162 10.8 159 -999
2009-08-31 09:26:10 51°17.201 2°52.282 162 10.8 159 -999
2009-08-31 09:26:20 51°17.174 2°52.302 162 10.8 159 -999
2009-08-31 09:26:30 51°17.147 2°52.324 162 10.8 159 -999
2009-08-31 09:26:40 51°17.12 2°52.347 162 10.8 159 -999
2009-08-31 09:26:50 51°17.094 2°52.371 162 10.8 159 -999
2009-08-31 09:27:00 51°17.068 2°52.394 155.9 10.9 151 -999
2009-08-31 09:27:10 51°17.041 2°52.418 155.9 10.9 151 -999
2009-08-31 09:27:20 51°17.015 2°52.443 155.9 10.9 151 -999
2009-08-31 09:27:30 51°16.989 2°52.468 155.9 10.9 151 -999
2009-08-31 09:27:40 51°16.964 2°52.493 155.9 10.9 151 -999
2009-08-31 09:27:50 51°16.938 2°52.518 155.9 10.9 151 -999
2009-08-31 09:28:00 51°16.911 2°52.542 154.4 11 148 -999
2009-08-31 09:28:10 51°16.885 2°52.566 154.4 11 148 -999
2009-08-31 09:28:20 51°16.859 2°52.59 154.4 11 148 -999
2009-08-31 09:28:30 51°16.833 2°52.614 154.4 11 148 -999
2009-08-31 09:28:40 51°16.806 2°52.638 154.4 11 148 -999
2009-08-31 09:28:50 51°16.78 2°52.662 154.4 11 148 -999
2009-08-31 09:29:00 51°16.754 2°52.686 154.5 10.8 151 -999
2009-08-31 09:29:10 51°16.728 2°52.71 154.5 10.8 151 -999
2009-08-31 09:29:20 51°16.701 2°52.733 154.5 10.8 151 -999
2009-08-31 09:29:30 51°16.675 2°52.758 154.5 10.8 151 -999
2009-08-31 09:29:40 51°16.648 2°52.78 154.5 10.8 151 -999
2009-08-31 09:29:50 51°16.621 2°52.804 154.5 10.8 151 -999
2009-08-31 09:30:00 51°16.594 2°52.828 156.3 11.09 150 -999
2009-08-31 09:30:10 51°16.568 2°52.853 156.3 11.09 150 -999
2009-08-31 09:30:20 51°16.541 2°52.876 156.3 11.09 150 -999
2009-08-31 09:30:30 51°16.514 2°52.899 156.3 11.09 150 -999
2009-08-31 09:30:40 51°16.487 2°52.924 156.3 11.09 150 -999
2009-08-31 09:30:50 51°16.46 2°52.947 156.3 11.09 150 -999
2009-08-31 09:31:00 51°16.433 2°52.97 156.9 11.09 151 -999
2009-08-31 09:31:10 51°16.406 2°52.994 156.9 11.09 151 -999
2009-08-31 09:31:20 51°16.38 2°53.018 156.9 11.09 151 -999
2009-08-31 09:31:30 51°16.353 2°53.042 156.9 11.09 151 -999
2009-08-31 09:31:40 51°16.326 2°53.066 156.9 11.09 151 -999
2009-08-31 09:31:50 51°16.3 2°53.09 156.9 11.09 151 -999
2009-08-31 09:32:00 51°16.273 2°53.115 155.4 11.19 150 -999
2009-08-31 09:32:10 51°16.247 2°53.138 155.4 11.19 150 -999
2009-08-31 09:32:20 51°16.22 2°53.162 155.4 11.19 150 -999
2009-08-31 09:32:30 51°16.193 2°53.186 155.4 11.19 150 -999
2009-08-31 09:32:40 51°16.167 2°53.211 155.4 11.19 150 -999
2009-08-31 09:32:50 51°16.14 2°53.235 155.4 11.19 150 -999
2009-08-31 09:33:00 51°16.113 2°53.258 156.8 11.09 153 -999
2009-08-31 09:33:10 51°16.086 2°53.281 156.8 11.09 153 -999
2009-08-31 09:33:20 51°16.059 2°53.304 156.8 11.09 153 -999
2009-08-31 09:33:30 51°16.032 2°53.328 156.8 11.09 153 -999
2009-08-31 09:33:40 51°16.005 2°53.352 156.8 11.09 153 -999
2009-08-31 09:33:50 51°15.979 2°53.376 156.8 11.09 153 -999
2009-08-31 09:34:00 51°15.952 2°53.4 155.6 11.09 150 -999
2009-08-31 09:34:10 51°15.926 2°53.424 155.6 11.09 150 -999
2009-08-31 09:34:20 51°15.899 2°53.449 155.6 11.09 150 -999
2009-08-31 09:34:30 51°15.872 2°53.473 155.6 11.09 150 -999
2009-08-31 09:34:40 51°15.846 2°53.497 155.6 11.09 150 -999
2009-08-31 09:34:50 51°15.819 2°53.52 155.6 11.09 150 -999
2009-08-31 09:35:00 51°15.791 2°53.543 156.9 11.09 153 -999
2009-08-31 09:35:10 51°15.765 2°53.567 156.9 11.09 153 -999
2009-08-31 09:35:20 51°15.738 2°53.589 156.9 11.09 153 -999
2009-08-31 09:35:30 51°15.71 2°53.612 156.9 11.09 153 -999
2009-08-31 09:35:40 51°15.683 2°53.635 156.9 11.09 153 -999
2009-08-31 09:35:50 51°15.656 2°53.659 156.9 11.09 153 -999
2009-08-31 09:36:00 51°15.63 2°53.683 156 11.09 151 -999
2009-08-31 09:36:10 51°15.603 2°53.707 156 11.09 151 -999
2009-08-31 09:36:20 51°15.576 2°53.73 156 11.09 151 -999
2009-08-31 09:36:30 51°15.549 2°53.754 156 11.09 151 -999
2009-08-31 09:36:40 51°15.522 2°53.777 156 11.09 151 -999
2009-08-31 09:36:50 51°15.496 2°53.802 156 11.09 151 -999
2009-08-31 09:37:00 51°15.471 2°53.829 151.5 11.19 146 -999
2009-08-31 09:37:10 51°15.445 2°53.857 151.5 11.19 146 -999
2009-08-31 09:37:20 51°15.42 2°53.885 151.5 11.19 146 -999
2009-08-31 09:37:30 51°15.394 2°53.913 151.5 11.19 146 -999
2009-08-31 09:37:40 51°15.369 2°53.942 151.5 11.19 146 -999
2009-08-31 09:37:50 51°15.344 2°53.969 151.5 11.19 146 -999
2009-08-31 09:38:00 51°15.318 2°53.995 152.3 11.09 147 -999
2009-08-31 09:38:10 51°15.293 2°54.019 152.3 11.09 147 -999
2009-08-31 09:38:20 51°15.273 2°54.04 152.3 11.09 147 -999
2009-08-31 09:38:30 51°15.255 2°54.057 152.3 11.09 147 -999
2009-08-31 09:38:40 51°15.24 2°54.073 152.3 11.09 147 -999
2009-08-31 09:38:50 51°15.228 2°54.09 152.3 11.09 147 -999
2009-08-31 09:39:00 51°15.218 2°54.106 149.1 5.2 133 -999
2009-08-31 09:39:10 51°15.209 2°54.123 149.1 5.2 133 -999
2009-08-31 09:39:20 51°15.202 2°54.14 149.1 5.2 133 -999
2009-08-31 09:39:30 51°15.196 2°54.156 149.1 5.2 133 -999
2009-08-31 09:39:40 51°15.191 2°54.173 149.1 5.2 133 -999
2009-08-31 09:39:50 51°15.187 2°54.189 149.1 5.2 133 -999
2009-08-31 09:40:00 51°15.182 2°54.205 130 3.79 112 -999
2009-08-31 09:40:10 51°15.179 2°54.22 130 3.79 112 -999
2009-08-31 09:40:20 51°15.175 2°54.236 130 3.79 112 -999
2009-08-31 09:40:30 51°15.172 2°54.25 130 3.79 112 -999
2009-08-31 09:40:40 51°15.169 2°54.265 130 3.79 112 -999
2009-08-31 09:40:50 51°15.166 2°54.279 130 3.79 112 -999
2009-08-31 09:41:00 51°15.163 2°54.292 128.1 3.29 107 -999
2009-08-31 09:41:10 51°15.16 2°54.306 128.1 3.29 107 -999
2009-08-31 09:41:20 51°15.157 2°54.319 128.1 3.29 107 -999
2009-08-31 09:41:30 51°15.155 2°54.332 128.1 3.29 107 -999
2009-08-31 09:41:40 51°15.152 2°54.344 128.1 3.29 107 -999
2009-08-31 09:41:50 51°15.15 2°54.357 128.1 3.29 107 -999
2009-08-31 09:42:00 51°15.147 2°54.369 132.1 2.89 106 -999
2009-08-31 09:42:10 51°15.145 2°54.38 132.1 2.89 106 -999
2009-08-31 09:42:20 51°15.143 2°54.392 132.1 2.89 106 -999
2009-08-31 09:42:30 51°15.141 2°54.404 132.1 2.89 106 -999
2009-08-31 09:42:40 51°15.138 2°54.415 132.1 2.89 106 -999
2009-08-31 09:42:50 51°15.136 2°54.427 132.1 2.89 106 -999
2009-08-31 09:43:00 51°15.134 2°54.438 135.5 2.7 106 -999
2009-08-31 09:43:10 51°15.132 2°54.449 135.5 2.7 106 -999
2009-08-31 09:43:20 51°15.13 2°54.46 135.5 2.7 106 -999
2009-08-31 09:43:30 51°15.128 2°54.471 135.5 2.7 106 -999
2009-08-31 09:43:40 51°15.126 2°54.481 135.5 2.7 106 -999
2009-08-31 09:43:50 51°15.124 2°54.491 135.5 2.7 106 -999
2009-08-31 09:44:00 51°15.122 2°54.501 140 2.39 111 -999
2009-08-31 09:44:10 51°15.12 2°54.511 140 2.39 111 -999
2009-08-31 09:44:20 51°15.118 2°54.521 140 2.39 111 -999
2009-08-31 09:44:30 51°15.115 2°54.531 140 2.39 111 -999
2009-08-31 09:44:40 51°15.113 2°54.541 140 2.39 111 -999
2009-08-31 09:44:50 51°15.11 2°54.551 140 2.39 111 -999
2009-08-31 09:45:00 51°15.105 2°54.562 146 3 123 -999
2009-08-31 09:45:10 51°15.099 2°54.575 146 3 123 -999
2009-08-31 09:45:20 51°15.09 2°54.59 146 3 123 -999
2009-08-31 09:45:30 51°15.08 2°54.605 146 3 123 -999
2009-08-31 09:45:40 51°15.069 2°54.62 146 3 123 -999
2009-08-31 09:45:50 51°15.059 2°54.634 146 3 123 -999
2009-08-31 09:46:00 51°15.05 2°54.647 152.3 4.4 136 -999
2009-08-31 09:46:10 51°15.042 2°54.66 152.3 4.4 136 -999
2009-08-31 09:46:20 51°15.035 2°54.674 152.3 4.4 136 -999
2009-08-31 09:46:30 51°15.028 2°54.687 152.3 4.4 136 -999
2009-08-31 09:46:40 51°15.021 2°54.699 152.3 4.4 136 -999
2009-08-31 09:46:50 51°15.016 2°54.712 152.3 4.4 136 -999
2009-08-31 09:47:00 51°15.011 2°54.724 146.9 3.29 124 -999
2009-08-31 09:47:10 51°15.006 2°54.737 146.9 3.29 124 -999
2009-08-31 09:47:20 51°15.001 2°54.749 146.9 3.29 124 -999
2009-08-31 09:47:30 51°14.996 2°54.76 146.9 3.29 124 -999
2009-08-31 09:47:40 51°14.992 2°54.772 146.9 3.29 124 -999
2009-08-31 09:47:50 51°14.988 2°54.782 146.9 3.29 124 -999
2009-08-31 09:48:00 51°14.983 2°54.793 152.1 2.7 124 -999
2009-08-31 09:48:10 51°14.979 2°54.803 152.1 2.7 124 -999
2009-08-31 09:48:20 51°14.975 2°54.812 152.1 2.7 124 -999
2009-08-31 09:48:30 51°14.971 2°54.822 152.1 2.7 124 -999
2009-08-31 09:48:40 51°14.967 2°54.83 152.1 2.7 124 -999
2009-08-31 09:48:50 51°14.963 2°54.838 152.1 2.7 124 -999
2009-08-31 09:49:00 51°14.959 2°54.846 162.9 2.1 130 -999
2009-08-31 09:49:10 51°14.955 2°54.853 162.9 2.1 130 -999
2009-08-31 09:49:20 51°14.952 2°54.86 162.9 2.1 130 -999
2009-08-31 09:49:30 51°14.948 2°54.867 162.9 2.1 130 -999
2009-08-31 09:49:40 51°14.944 2°54.874 162.9 2.1 130 -999
2009-08-31 09:49:50 51°14.941 2°54.88 162.9 2.1 130 -999
2009-08-31 09:50:00 51°14.937 2°54.886 170.1 1.8 133 -999
2009-08-31 09:50:10 51°14.934 2°54.892 170.1 1.8 133 -999
2009-08-31 09:50:20 51°14.93 2°54.898 170.1 1.8 133 -999
2009-08-31 09:50:30 51°14.927 2°54.904 170.1 1.8 133 -999
2009-08-31 09:50:40 51°14.923 2°54.91 170.1 1.8 133 -999
2009-08-31 09:50:50 51°14.92 2°54.916 170.1 1.8 133 -999
2009-08-31 09:51:00 51°14.916 2°54.921 173.5 1.8 135 -999
2009-08-31 09:51:10 51°14.912 2°54.927 173.5 1.8 135 -999
2009-08-31 09:51:20 51°14.909 2°54.932 173.5 1.8 135 -999
2009-08-31 09:51:30 51°14.905 2°54.937 173.5 1.8 135 -999
2009-08-31 09:51:40 51°14.902 2°54.943 173.5 1.8 135 -999
2009-08-31 09:51:50 51°14.898 2°54.948 173.5 1.8 135 -999
2009-08-31 09:52:00 51°14.895 2°54.953 174.9 1.8 136 -999
2009-08-31 09:52:10 51°14.891 2°54.959 174.9 1.8 136 -999
2009-08-31 09:52:20 51°14.888 2°54.964 174.9 1.8 136 -999
2009-08-31 09:52:30 51°14.884 2°54.97 174.9 1.8 136 -999
2009-08-31 09:52:40 51°14.881 2°54.975 174.9 1.8 136 -999
2009-08-31 09:52:50 51°14.877 2°54.982 174.9 1.8 136 -999
2009-08-31 09:53:00 51°14.874 2°54.988 171.1 1.89 132 -999
2009-08-31 09:53:10 51°14.87 2°54.994 171.1 1.89 132 -999
2009-08-31 09:53:20 51°14.867 2°54.999 171.1 1.89 132 -999
2009-08-31 09:53:30 51°14.863 2°55.004 171.1 1.89 132 -999
2009-08-31 09:53:40 51°14.859 2°55.009 171.1 1.89 132 -999
2009-08-31 09:53:50 51°14.856 2°55.013 171.1 1.89 132 -999
2009-08-31 09:54:00 51°14.853 2°55.017 185.1 1.5 143 -999
2009-08-31 09:54:10 51°14.849 2°55.02 185.1 1.5 143 -999
2009-08-31 09:54:20 51°14.846 2°55.024 185.1 1.5 143 -999
2009-08-31 09:54:30 51°14.843 2°55.027 185.1 1.5 143 -999
2009-08-31 09:54:40 51°14.839 2°55.03 185.1 1.5 143 -999
2009-08-31 09:54:50 51°14.836 2°55.032 185.1 1.5 143 -999
2009-08-31 09:55:00 51°14.833 2°55.035 193.1 1.3 154 -999
2009-08-31 09:55:10 51°14.829 2°55.037 193.1 1.3 154 -999
2009-08-31 09:55:20 51°14.826 2°55.039 193.1 1.3 154 -999
2009-08-31 09:55:30 51°14.823 2°55.041 193.1 1.3 154 -999
2009-08-31 09:55:40 51°14.82 2°55.043 193.1 1.3 154 -999
2009-08-31 09:55:50 51°14.817 2°55.044 193.1 1.3 154 -999
2009-08-31 09:56:00 51°14.814 2°55.045 200.9 1.1 171 -999
2009-08-31 09:56:10 51°14.811 2°55.046 200.9 1.1 171 -999
2009-08-31 09:56:20 51°14.808 2°55.047 200.9 1.1 171 -999
2009-08-31 09:56:30 51°14.805 2°55.047 200.9 1.1 171 -999
2009-08-31 09:56:40 51°14.802 2°55.048 200.9 1.1 171 -999
2009-08-31 09:56:50 51°14.799 2°55.049 200.9 1.1 171 -999
2009-08-31 09:57:00 51°14.796 2°55.05 202 1.1 170 -999
2009-08-31 09:57:10 51°14.793 2°55.051 202 1.1 170 -999
2009-08-31 09:57:20 51°14.79 2°55.053 202 1.1 170 -999
2009-08-31 09:57:30 51°14.786 2°55.054 202 1.1 170 -999
2009-08-31 09:57:40 51°14.78 2°55.055 202 1.1 170 -999
2009-08-31 09:57:50 51°14.771 2°55.053 202 1.1 170 -999
2009-08-31 09:58:00 51°14.759 2°55.051 196.5 4.4 188 -999
2009-08-31 09:58:10 51°14.745 2°55.047 196.5 4.4 188 -999
2009-08-31 09:58:20 51°14.73 2°55.042 196.5 4.4 188 -999
2009-08-31 09:58:30 51°14.713 2°55.037 196.5 4.4 188 -999
2009-08-31 09:58:40 51°14.694 2°55.032 196.5 4.4 188 -999
2009-08-31 09:58:50 51°14.674 2°55.028 196.5 4.4 188 -999
2009-08-31 09:59:00 51°14.654 2°55.023 194.1 7.4 188 -999
2009-08-31 09:59:10 51°14.634 2°55.019 194.1 7.4 188 -999
2009-08-31 09:59:20 51°14.612 2°55.014 194.1 7.4 188 -999
2009-08-31 09:59:30 51°14.591 2°55.009 194.1 7.4 188 -999
2009-08-31 09:59:40 51°14.569 2°55.005 194.1 7.4 188 -999
2009-08-31 09:59:50 51°14.548 2°55.002 194.1 7.4 188 -999
2009-08-31 10:00:00 51°14.526 2°55.001 189 7.9 181 -999
2009-08-31 10:00:10 51°14.504 2°55.002 189 7.9 181 -999
2009-08-31 10:00:20 51°14.481 2°55.005 189 7.9 181 -999
2009-08-31 10:00:30 51°14.46 2°55.013 189 7.9 181 -999
2009-08-31 10:00:40 51°14.438 2°55.024 189 7.9 181 -999
2009-08-31 10:00:50 51°14.417 2°55.038 189 7.9 181 -999
2009-08-31 10:01:00 51°14.397 2°55.056 159.5 8.3 149 -999
2009-08-31 10:01:10 51°14.377 2°55.075 159.5 8.3 149 -999
2009-08-31 10:01:20 51°14.358 2°55.095 159.5 8.3 149 -999
2009-08-31 10:01:30 51°14.339 2°55.117 159.5 8.3 149 -999
2009-08-31 10:01:40 51°14.322 2°55.143 159.5 8.3 149 -999
2009-08-31 10:01:50 51°14.306 2°55.17 159.5 8.3 149 -999
2009-08-31 10:02:00 51°14.289 2°55.197 134.6 8.69 135 -999
2009-08-31 10:02:10 51°14.271 2°55.224 134.6 8.69 135 -999
2009-08-31 10:02:20 51°14.255 2°55.251 134.6 8.69 135 -999
2009-08-31 10:02:30 51°14.237 2°55.278 134.6 8.69 135 -999
2009-08-31 10:02:40 51°14.22 2°55.304 134.6 8.69 135 -999
2009-08-31 10:02:50 51°14.202 2°55.331 134.6 8.69 135 -999
2009-08-31 10:03:00 51°14.184 2°55.354 138.8 8.5 143 -999
2009-08-31 10:03:10 51°14.165 2°55.376 138.8 8.5 143 -999
2009-08-31 10:03:20 51°14.145 2°55.395 138.8 8.5 143 -999
2009-08-31 10:03:30 51°14.124 2°55.413 138.8 8.5 143 -999
2009-08-31 10:03:40 51°14.103 2°55.429 138.8 8.5 143 -999
2009-08-31 10:03:50 51°14.083 2°55.444 138.8 8.5 143 -999
2009-08-31 10:04:00 51°14.064 2°55.458 156.1 7.59 155 -999
2009-08-31 10:04:10 51°14.045 2°55.472 156.1 7.59 155 -999
2009-08-31 10:04:20 51°14.027 2°55.485 156.1 7.59 155 -999
2009-08-31 10:04:30 51°14.011 2°55.497 156.1 7.59 155 -999
2009-08-31 10:04:40 51°13.994 2°55.509 156.1 7.59 155 -999
2009-08-31 10:04:50 51°13.977 2°55.52 156.1 7.59 155 -999
2009-08-31 10:05:00 51°13.96 2°55.531 159.5 6.7 156 -999
2009-08-31 10:05:10 51°13.943 2°55.543 159.5 6.7 156 -999
2009-08-31 10:05:20 51°13.926 2°55.556 159.5 6.7 156 -999
2009-08-31 10:05:30 51°13.909 2°55.569 159.5 6.7 156 -999
2009-08-31 10:05:40 51°13.893 2°55.581 159.5 6.7 156 -999
2009-08-31 10:05:50 51°13.876 2°55.594 159.5 6.7 156 -999
2009-08-31 10:06:00 51°13.859 2°55.606 156 6.59 155 -999
2009-08-31 10:06:10 51°13.842 2°55.619 156 6.59 155 -999
2009-08-31 10:06:20 51°13.827 2°55.632 156 6.59 155 -999
2009-08-31 10:06:30 51°13.811 2°55.646 156 6.59 155 -999
2009-08-31 10:06:40 51°13.797 2°55.661 156 6.59 155 -999
2009-08-31 10:06:50 51°13.783 2°55.676 156 6.59 155 -999
2009-08-31 10:07:00 51°13.772 2°55.692 141.5 5.4 138 -999
2009-08-31 10:07:10 51°13.762 2°55.709 141.5 5.4 138 -999
2009-08-31 10:07:20 51°13.752 2°55.725 141.5 5.4 138 -999
2009-08-31 10:07:30 51°13.744 2°55.741 141.5 5.4 138 -999
2009-08-31 10:07:40 51°13.737 2°55.756 141.5 5.4 138 -999
2009-08-31 10:07:50 51°13.73 2°55.77 141.5 5.4 138 -999
2009-08-31 10:08:00 51°13.724 2°55.785 128 3.79 125 -999
2009-08-31 10:08:10 51°13.718 2°55.798 128 3.79 125 -999
2009-08-31 10:08:20 51°13.712 2°55.811 128 3.79 125 -999
2009-08-31 10:08:30 51°13.707 2°55.823 128 3.79 125 -999
2009-08-31 10:08:40 51°13.702 2°55.835 128 3.79 125 -999
2009-08-31 10:08:50 51°13.697 2°55.846 128 3.79 125 -999
2009-08-31 10:09:00 51°13.692 2°55.857 128.9 3 126 -999
2009-08-31 10:09:10 51°13.688 2°55.867 128.9 3 126 -999
2009-08-31 10:09:20 51°13.684 2°55.877 128.9 3 126 -999
2009-08-31 10:09:30 51°13.68 2°55.885 128.9 3 126 -999
2009-08-31 10:09:40 51°13.677 2°55.894 128.9 3 126 -999
2009-08-31 10:09:50 51°13.673 2°55.902 128.9 3 126 -999
2009-08-31 10:10:00 51°13.67 2°55.91 120.7 2.29 116 -999
2009-08-31 10:10:10 51°13.668 2°55.919 120.7 2.29 116 -999
2009-08-31 10:10:20 51°13.667 2°55.928 120.7 2.29 116 -999
2009-08-31 10:10:30 51°13.666 2°55.934 120.7 2.29 116 -999
2009-08-31 10:10:40 51°13.666 2°55.939 120.7 2.29 116 -999
2009-08-31 10:10:50 51°13.666 2°55.941 120.7 2.29 116 -999
2009-08-31 10:11:00 51°13.666 2°55.943 101.4 0.29 85 -999
2009-08-31 10:11:10 51°13.666 2°55.945 101.4 0.29 85 -999
2009-08-31 10:11:20 51°13.666 2°55.946 101.4 0.29 85 -999
2009-08-31 10:11:30 51°13.666 2°55.947 101.4 0.29 85 -999
2009-08-31 10:11:40 51°13.666 2°55.948 101.4 0.29 85 -999
2009-08-31 10:11:50 51°13.666 2°55.949 101.4 0.29 85 -999
2009-08-31 10:12:00 51°13.666 2°55.951 110.4 0.29 103 -999
2009-08-31 10:12:10 51°13.665 2°55.952 110.4 0.29 103 -999
2009-08-31 10:12:20 51°13.665 2°55.954 110.4 0.29 103 -999
2009-08-31 10:12:30 51°13.665 2°55.955 110.4 0.29 103 -999
2009-08-31 10:12:40 51°13.664 2°55.957 110.4 0.29 103 -999
2009-08-31 10:12:50 51°13.664 2°55.958 110.4 0.29 103 -999
2009-08-31 10:13:00 51°13.663 2°55.958 129.3 0.29 149 -999
2009-08-31 10:13:10 51°13.662 2°55.959 129.3 0.29 149 -999
2009-08-31 10:13:20 51°13.662 2°55.959 129.3 0.29 149 -999
2009-08-31 10:13:30 51°13.663 2°55.959 129.3 0.29 149 -999
2009-08-31 10:13:40 51°13.663 2°55.959 129.3 0.29 149 -999
2009-08-31 10:13:50 51°13.663 2°55.959 129.3 0.29 149 -999
2009-08-31 10:14:00 51°13.663 2°55.959 130.1 0.1 186 -999
2009-08-31 10:14:10 51°13.662 2°55.959 130.1 0.1 186 -999
2009-08-31 10:14:20 51°13.662 2°55.959 130.1 0.1 186 -999
2009-08-31 10:14:30 51°13.662 2°55.959 130.1 0.1 186 -999
2009-08-31 10:14:40 51°13.663 2°55.959 130.1 0.1 186 -999
2009-08-31 10:14:50 51°13.663 2°55.959 130.1 0.1 186 -999
2009-08-31 10:15:00 51°13.663 2°55.959 129   45 -999
2009-08-31 10:15:10 51°13.663 2°55.959 129   45 -999
2009-08-31 10:15:20 51°13.663 2°55.959 129   45 -999
2009-08-31 10:15:30 51°13.663 2°55.959 129   45 -999
2009-08-31 10:15:40 51°13.663 2°55.959 129   45 -999
2009-08-31 10:15:50 51°13.663 2°55.959 129   45 -999
2009-08-31 10:16:00 51°13.663 2°55.959 128.4   337 -999
2009-08-31 10:16:10 51°13.663 2°55.959 128.4   337 -999
2009-08-31 10:16:20 51°13.663 2°55.959 128.4   337 -999
2009-08-31 10:16:30 51°13.663 2°55.959 128.4   337 -999
2009-08-31 10:16:40 51°13.663 2°55.959 128.4   337 -999
2009-08-31 10:16:50 51°13.663 2°55.959 128.4   337 -999